Aérodrome :
LOGIN :

S'inscrire | Disclaimer

   EN    FR    IT 

 










Légende :    VFR   VFR Marginal   IFR   IFR Intensif   IFR Très Intensif
Visi : 
Plafond : 
>= 8 km
>= 3000ft
5 à 8 km
1000 à 3000 ft
1500m à 5 km
500 à 1000 ft
800 à 1500m
200 à 500 ft
< 800m
< 200 ft
Symboles :   Orages  Brouillard  Fortes neiges  Fortes précipitations  Vent > 20 kt
SIGMETs :   Divers  Orages  Givrage  Turbulence  Onde Orograph.  Cendres Volcan.







- Altitude de l'aérodrome : 1504 ft
- Code IATA : PNA


LEPP - Noain Pamplona

DERNIER METAR :
  • 142230Z AUTO 33011KT 9000 OVC031/// 17/13 Q1022

METARs EXPIRÉS :
  • 142200Z 32008KT 290V350 9999 FEW020 BKN034 18/13 Q1023
  • 142130Z 32011KT 9999 FEW020 BKN032 18/13 Q1023
  • 142100Z 33013KT 9999 FEW028 BKN038 18/13 Q1022
  • 142030Z 34012KT 9999 FEW028 BKN038 18/13 Q1022
  • 142000Z 34013KT 9999 FEW028 BKN038 18/13 Q1022

TAF TAF LEPP
Valide du 14 à 21h jusqu'au 15 à 21h UTC


142000Z 1421/1521 34009KT 9999 BKN030 TX30/1515Z TN14/1505Z
Pas de NOTAMs connus pour ce terrain.



MET'MAP, la Météo Aéronautique d'un coup d'oeil ! - Copyright ORBIFLY Décembre 2007 - Disclaimer

ORBIFLY MET'MAP TEAM :

Programmation & Développement : Alexandra Zaïnal
Conception & Développement : Baudouin d'Aumeries
Co-Programmation & Développement : Marc-Olivier Méhu
Soutien technique & logistique : Manuel Goepfert

Contact : metmap@orbifly.com




SOURCES & CREDITS :

   NOAA